Time;durP1;ratioP1;P1;durP2;ratioP2;P2;SDS_P1;SDS_P2;PMS_P1;PMS_P2;Temp;Humidity;BMP_temperature;BMP_pressure;BME280_temperature;BME280_humidity;BME280_pressure;Samples;Min_cycle;Max_cycle;Signal;HPM_P1;HPM_P2
2023/01/06 00:02:06;;;;;;;4.60;2.77;;;;;;;3.50;87.50;99254.52;1729675;83;20967;-40
2023/01/06 00:04:32;;;;;;;9.23;3.40;;;;;;;3.43;87.83;99255.97;1729895;83;20998;-40
2023/01/06 00:06:58;;;;;;;4.55;2.83;;;;;;;3.38;88.27;99250.03;1729773;83;21507;-43
2023/01/06 00:09:24;;;;;;;5.92;2.90;;;;;;;3.40;87.50;99270.37;1729874;83;21464;-40
2023/01/06 00:11:50;;;;;;;4.53;3.12;;;;;;;3.45;87.57;99263.73;1729627;83;21598;-40
2023/01/06 00:14:16;;;;;;;6.67;2.77;;;;;;;3.42;87.67;99267.28;1729707;83;20998;-42
2023/01/06 00:16:41;;;;;;;2.60;2.20;;;;;;;3.42;86.96;99272.48;1729761;83;21013;-41
2023/01/06 00:19:10;;;;;;;4.90;2.45;;;;;;;3.41;86.83;99264.72;1729814;83;21531;-42
2023/01/06 00:21:35;;;;;;;3.33;2.30;;;;;;;3.42;86.77;99260.78;1729753;81;21563;-42
2023/01/06 00:24:01;;;;;;;5.90;2.15;;;;;;;3.30;86.62;99270.64;1729740;82;20987;-42
2023/01/06 00:26:27;;;;;;;3.62;2.37;;;;;;;3.32;86.43;99269.70;1729775;83;21052;-39
2023/01/06 00:28:55;;;;;;;2.77;2.30;;;;;;;3.36;86.55;99277.81;1729816;83;21503;-40
2023/01/06 00:31:21;;;;;;;3.42;2.20;;;;;;;3.28;86.32;99272.44;1729854;83;21010;-40
2023/01/06 00:33:47;;;;;;;2.27;2.08;;;;;;;3.29;86.60;99280.17;1729692;82;21006;-42
2023/01/06 00:36:14;;;;;;;2.58;2.20;;;;;;;3.23;86.16;99290.28;1729847;82;21046;-42
2023/01/06 00:38:40;;;;;;;3.58;2.10;;;;;;;3.19;86.61;99290.41;1729739;81;20978;-40
2023/01/06 00:43:53;;;;;;;4.50;2.67;;;;;;;3.26;86.92;99297.16;1729760;83;20978;-39
2023/01/06 00:46:19;;;;;;;5.47;2.50;;;;;;;3.20;86.96;99307.69;1729679;83;21070;-41
2023/01/06 00:48:45;;;;;;;3.42;2.27;;;;;;;3.16;87.26;99309.97;1737503;82;21006;-42
2023/01/06 00:51:10;;;;;;;5.22;2.77;;;;;;;3.26;86.56;99308.41;1739700;82;21006;-43
2023/01/06 00:53:36;;;;;;;4.35;2.20;;;;;;;3.29;86.41;99313.11;1739779;82;21045;-40
2023/01/06 00:56:02;;;;;;;3.25;2.42;;;;;;;3.13;86.69;99319.12;1739766;82;21473;-40
2023/01/06 00:58:31;;;;;;;5.30;2.40;;;;;;;3.20;86.55;99331.95;1739741;82;21010;-40
2023/01/06 01:00:57;;;;;;;4.03;2.60;;;;;;;3.27;86.30;99332.64;1738451;82;20947;-42
2023/01/06 01:03:23;;;;;;;2.98;2.27;;;;;;;3.10;86.05;99322.67;1739786;82;21447;-42
2023/01/06 01:05:49;;;;;;;3.95;2.42;;;;;;;3.12;86.00;99327.38;1739668;82;21013;-38
2023/01/06 01:08:15;;;;;;;3.60;2.60;;;;;;;3.15;86.31;99332.97;1739734;82;20994;-42
2023/01/06 01:10:41;;;;;;;3.47;2.70;;;;;;;3.23;86.41;99338.81;1739844;82;21003;-41
2023/01/06 01:13:07;;;;;;;7.15;2.72;;;;;;;3.19;86.26;99345.83;1739597;82;20971;-38
2023/01/06 01:15:32;;;;;;;3.27;2.85;;;;;;;3.21;86.56;99347.09;1739673;82;21039;-40
2023/01/06 01:17:58;;;;;;;5.17;2.92;;;;;;;3.18;86.67;99365.35;1739690;82;20990;-39
2023/01/06 01:20:24;;;;;;;5.62;3.22;;;;;;;3.21;86.70;99366.13;1739578;82;20987;-40
2023/01/06 01:22:50;;;;;;;3.37;2.72;;;;;;;2.96;86.58;99374.94;1739692;82;20986;-39
2023/01/06 01:25:15;;;;;;;5.10;3.22;;;;;;;3.01;86.44;99384.78;1739639;82;21026;-41
2023/01/06 01:27:41;;;;;;;6.78;3.60;;;;;;;2.97;86.34;99394.84;1739864;82;21074;-42
2023/01/06 01:30:08;;;;;;;3.25;2.83;;;;;;;2.91;86.50;99392.41;1739658;82;21010;-41
2023/01/06 01:32:34;;;;;;;4.97;3.17;;;;;;;3.00;86.67;99403.88;1739877;82;20974;-40
2023/01/06 01:34:59;;;;;;;3.02;2.80;;;;;;;2.95;86.54;99407.45;1739561;82;20987;-39
2023/01/06 01:37:25;;;;;;;3.87;2.95;;;;;;;2.95;86.20;99399.65;1739630;82;21022;-38
2023/01/06 01:39:51;;;;;;;3.62;3.33;;;;;;;2.93;86.65;99406.63;1739664;82;20978;-40
2023/01/06 01:42:19;;;;;;;3.67;3.05;;;;;;;3.04;86.25;99408.11;1739838;82;20967;-38
2023/01/06 01:45:22;;;;;;;4.55;3.10;;;;;;;2.93;86.08;99412.70;1739672;82;20982;-42
2023/01/06 01:47:56;;;;;;;3.95;3.33;;;;;;;2.80;86.37;99415.13;1736516;82;21010;-42
2023/01/06 01:50:42;;;;;;;3.90;3.40;;;;;;;2.82;86.33;99421.14;1729753;83;20966;-39
2023/01/06 01:53:16;;;;;;;3.50;2.95;;;;;;;2.83;86.33;99424.17;1728912;83;21111;-42
2023/01/06 01:55:42;;;;;;;5.03;3.30;;;;;;;2.84;86.81;99430.63;1728924;83;21006;-40
2023/01/06 01:58:23;;;;;;;3.62;3.25;;;;;;;2.80;86.80;99427.70;1729671;83;21506;-42
2023/01/06 02:00:51;;;;;;;5.35;3.12;;;;;;;2.90;86.83;99436.59;1729422;83;21010;-39
2023/01/06 02:03:19;;;;;;;3.95;3.33;;;;;;;2.86;86.77;99438.39;1729619;83;21082;-39
2023/01/06 02:05:50;;;;;;;5.15;3.25;;;;;;;2.86;86.92;99441.00;1729693;83;21002;-42
2023/01/06 02:08:36;;;;;;;5.58;3.30;;;;;;;2.93;86.92;99448.19;1729083;82;20998;-43
2023/01/06 02:11:04;;;;;;;3.57;3.07;;;;;;;2.94;86.71;99445.56;1729333;82;21495;-42
2023/01/06 02:13:32;;;;;;;4.35;3.10;;;;;;;2.94;86.77;99450.76;1729733;83;21004;-42
2023/01/06 02:16:03;;;;;;;3.92;2.70;;;;;;;2.84;87.36;99451.86;1729673;83;20990;-40
2023/01/06 02:18:44;;;;;;;5.95;3.12;;;;;;;2.81;87.31;99457.11;1729577;83;21050;-42
2023/01/06 02:21:33;;;;;;;5.22;2.95;;;;;;;2.75;87.66;99453.33;1725690;82;21006;-38
2023/01/06 02:24:56;;;;;;;3.40;3.02;;;;;;;2.77;87.74;99455.02;1727915;81;21376;-42
2023/01/06 02:28:05;;;;;;;3.33;2.85;;;;;;;2.76;87.76;99452.00;1730106;82;21633;-42
2023/01/06 02:30:58;;;;;;;5.03;3.12;;;;;;;2.80;87.52;99447.59;1729646;83;20994;-41
2023/01/06 02:33:32;;;;;;;5.22;2.83;;;;;;;2.86;87.31;99453.98;1729663;83;21038;-41
2023/01/06 02:36:29;;;;;;;3.80;2.77;;;;;;;2.79;87.47;99455.00;1694187;83;20989;-40
2023/01/06 02:38:58;;;;;;;;;;;;;;;2.77;86.84;99454.18;1732240;83;21006;-41
2023/01/06 02:41:43;;;;;;;4.83;2.90;;;;;;;2.81;86.81;99458.41;1712122;80;20135;-40
2023/01/06 02:44:37;;;;;;;2.92;2.42;;;;;;;2.79;85.92;99466.23;1659415;86;21016;-40
2023/01/06 02:47:24;;;;;;;2.95;2.37;;;;;;;2.71;85.32;99480.25;1671062;85;21008;-41
2023/01/06 02:50:01;;;;;;;2.95;2.58;;;;;;;2.83;84.71;99478.71;1658023;85;21021;-40
2023/01/06 02:52:44;;;;;;;3.98;2.65;;;;;;;2.84;84.09;99475.23;1656708;84;21017;-42
2023/01/06 02:55:22;;;;;;;2.72;2.40;;;;;;;2.78;83.71;99482.69;1657207;86;21084;-39
2023/01/06 02:57:51;;;;;;;;;;;;;;;2.83;83.90;99483.91;1660168;85;21021;-42
2023/01/06 03:00:33;;;;;;;3.85;3.05;;;;;;;2.84;84.25;99481.73;1657604;86;20116;-41
2023/01/06 03:03:04;;;;;;;2.72;2.52;;;;;;;2.73;84.51;99481.08;1657596;86;21053;-40
2023/01/06 03:05:33;;;;;;;4.42;3.08;;;;;;;2.84;84.64;99486.92;1657577;86;21013;-43
2023/01/06 03:08:08;;;;;;;4.75;3.35;;;;;;;2.72;85.31;99492.36;1657583;86;21013;-41
2023/01/06 03:10:34;;;;;;;5.65;3.47;;;;;;;2.78;85.28;99487.88;1657505;86;21025;-39
2023/01/06 03:13:05;;;;;;;5.53;3.20;;;;;;;2.82;85.62;99494.75;1646161;86;21494;-41
2023/01/06 03:15:31;;;;;;;4.40;3.30;;;;;;;2.79;85.61;99492.66;1657084;86;21013;-45
2023/01/06 03:17:57;;;;;;;3.90;3.08;;;;;;;2.88;85.56;99492.46;1657479;86;21048;-41
2023/01/06 03:20:23;;;;;;;3.25;2.62;;;;;;;2.94;85.70;99493.62;1657502;86;21061;-41
2023/01/06 03:22:49;;;;;;;3.72;2.72;;;;;;;2.90;85.53;99497.18;1660669;83;20962;-40
2023/01/06 03:25:15;;;;;;;5.42;2.60;;;;;;;2.84;85.70;99498.61;1663536;86;21041;-40
2023/01/06 03:27:41;;;;;;;3.22;2.55;;;;;;;2.82;85.99;99502.53;1663455;86;21009;-39
2023/01/06 03:30:10;;;;;;;3.25;2.65;;;;;;;2.89;85.30;99504.55;1663288;85;21017;-42
2023/01/06 03:32:58;;;;;;;2.85;2.60;;;;;;;2.86;84.84;99508.53;1663453;86;21615;-41
2023/01/06 03:35:33;;;;;;;4.03;2.50;;;;;;;2.94;84.82;99511.80;1663506;86;21057;-39
2023/01/06 03:38:19;;;;;;;3.62;2.58;;;;;;;2.79;84.68;99509.53;1663630;86;20986;-40
2023/01/06 03:41:12;;;;;;;6.22;2.47;;;;;;;2.86;85.00;99517.62;1663732;86;21069;-41
2023/01/06 03:43:58;;;;;;;3.58;3.08;;;;;;;2.98;85.27;99520.39;1661899;85;21086;-41
2023/01/06 03:46:41;;;;;;;7.22;4.28;;;;;;;2.89;85.04;99516.23;1650128;86;21013;-39
2023/01/06 03:49:14;;;;;;;8.23;4.55;;;;;;;2.92;86.05;99517.94;1663584;86;21025;-39
2023/01/06 03:51:54;;;;;;;6.95;4.95;;;;;;;2.77;86.72;99529.49;1663230;86;21013;-39
2023/01/06 03:54:31;;;;;;;5.92;4.92;;;;;;;2.79;87.13;99535.51;1660705;84;21070;-40
2023/01/06 03:57:35;;;;;;;6.60;5.08;;;;;;;2.72;87.49;99536.52;1663662;86;21006;-42
2023/01/06 04:00:06;;;;;;;7.45;4.83;;;;;;;2.71;87.47;99530.47;1650180;86;21053;-40
2023/01/06 04:02:33;;;;;;;6.33;4.37;;;;;;;2.77;87.26;99530.79;1663883;86;21048;-41
2023/01/06 04:05:16;;;;;;;5.65;5.05;;;;;;;2.74;87.48;99533.44;1663954;86;21048;-39
2023/01/06 04:07:43;;;;;;;9.20;4.83;;;;;;;2.61;87.80;99533.66;1663660;85;20989;-40
2023/01/06 04:10:11;;;;;;;6.40;4.55;;;;;;;2.56;88.23;99545.88;1663762;86;20997;-41
2023/01/06 04:12:37;;;;;;;8.40;5.05;;;;;;;2.60;88.07;99548.84;1663587;86;21482;-38
2023/01/06 04:15:07;;;;;;;6.65;4.85;;;;;;;2.66;87.57;99546.13;1663688;86;21128;-41
2023/01/06 04:17:33;;;;;;;6.72;4.60;;;;;;;2.68;87.61;99549.54;1663615;84;21013;-40
2023/01/06 04:20:00;;;;;;;9.55;4.90;;;;;;;2.72;87.00;99539.11;1663851;86;21001;-41
2023/01/06 04:22:26;;;;;;;7.00;5.10;;;;;;;2.66;86.93;99537.48;1663806;86;20993;-40
2023/01/06 04:24:52;;;;;;;7.85;5.42;;;;;;;2.78;86.91;99537.67;1663583;86;21318;-39
2023/01/06 04:27:18;;;;;;;6.55;4.65;;;;;;;2.70;87.12;99546.92;1663600;84;20985;-40
2023/01/06 04:29:44;;;;;;;7.70;5.17;;;;;;;2.74;86.62;99545.97;1663607;85;21032;-41
2023/01/06 04:32:09;;;;;;;7.53;5.58;;;;;;;2.73;87.05;99548.59;1663618;86;21032;-40
2023/01/06 04:34:35;;;;;;;6.78;5.55;;;;;;;2.62;87.25;99553.56;1663657;84;21165;-42
2023/01/06 04:37:01;;;;;;;5.83;5.03;;;;;;;2.66;87.66;99550.47;1663537;86;21052;-39
2023/01/06 04:39:27;;;;;;;5.47;4.55;;;;;;;2.69;86.86;99549.97;1663606;85;21013;-42
2023/01/06 04:41:53;;;;;;;4.87;4.33;;;;;;;2.59;85.72;99556.21;1665352;84;21036;-42
2023/01/06 04:44:19;;;;;;;8.73;4.83;;;;;;;2.61;84.65;99560.92;1677197;85;21008;-42
2023/01/06 04:46:46;;;;;;;4.97;4.47;;;;;;;2.58;84.87;99538.91;1677432;85;21564;-41
2023/01/06 04:49:12;;;;;;;8.58;5.17;;;;;;;2.50;84.86;99542.10;1677093;85;21055;-40
2023/01/06 04:51:37;;;;;;;6.97;5.03;;;;;;;2.54;85.00;99545.50;1677121;85;21545;-41
2023/01/06 04:54:04;;;;;;;6.00;4.33;;;;;;;2.41;84.90;99548.31;1677283;85;21481;-41
2023/01/06 04:56:29;;;;;;;4.33;3.92;;;;;;;2.46;85.05;99546.49;1677186;85;21024;-41
2023/01/06 04:58:57;;;;;;;8.80;4.60;;;;;;;2.46;84.98;99545.20;1677123;84;21055;-40
2023/01/06 05:01:24;;;;;;;5.75;4.47;;;;;;;2.40;84.92;99541.42;1677273;85;21059;-42
2023/01/06 05:03:51;;;;;;;5.83;5.17;;;;;;;2.35;84.79;99538.47;1677071;84;21047;-40
2023/01/06 05:06:18;;;;;;;8.60;4.80;;;;;;;2.20;85.35;99533.99;1677667;84;21006;-40
2023/01/06 05:08:45;;;;;;;7.78;5.08;;;;;;;2.33;85.83;99537.22;1677257;85;21023;-42
2023/01/06 05:11:19;;;;;;;6.55;5.00;;;;;;;2.42;85.56;99531.87;1677282;85;21019;-38
2023/01/06 05:13:45;;;;;;;6.67;4.78;;;;;;;2.43;85.30;99537.91;1677104;85;21540;-41
2023/01/06 05:16:19;;;;;;;5.75;4.97;;;;;;;2.52;85.11;99540.78;1677145;84;21011;-38
2023/01/06 05:18:45;;;;;;;8.35;4.78;;;;;;;2.49;85.14;99546.87;1676592;85;21095;-39
2023/01/06 05:21:11;;;;;;;6.22;4.50;;;;;;;2.45;85.03;99551.70;1677193;84;21011;-41
2023/01/06 05:23:38;;;;;;;4.67;3.95;;;;;;;2.53;84.85;99565.42;1677199;84;21525;-41
2023/01/06 05:26:05;;;;;;;5.70;3.85;;;;;;;2.46;84.19;99562.52;1677271;84;21011;-42
2023/01/06 05:28:32;;;;;;;6.22;3.77;;;;;;;2.29;83.57;99557.19;1677202;84;21530;-40
2023/01/06 05:31:02;;;;;;;5.30;3.45;;;;;;;2.20;83.30;99549.56;1677060;85;21012;-42
2023/01/06 05:33:29;;;;;;;4.87;3.30;;;;;;;2.40;83.78;99550.92;1677079;85;21545;-41
2023/01/06 05:36:00;;;;;;;4.78;3.70;;;;;;;2.28;82.82;99558.05;1677311;85;21545;-43
2023/01/06 05:38:26;;;;;;;5.08;4.12;;;;;;;2.33;82.60;99563.18;1677088;85;21536;-40
2023/01/06 05:40:53;;;;;;;5.42;3.80;;;;;;;2.24;82.41;99568.53;1677208;84;21000;-40
2023/01/06 05:43:20;;;;;;;3.90;3.50;;;;;;;2.35;82.84;99561.41;1677287;84;21576;-40
2023/01/06 05:45:46;;;;;;;;;;;;;;;2.26;82.29;99566.31;1679286;85;20992;-42
2023/01/06 05:48:12;;;;;;;5.60;3.40;;;;;;;2.27;82.30;99568.04;1677177;85;20119;-42
2023/01/06 05:50:37;;;;;;;2.92;2.72;;;;;;;2.32;82.69;99568.39;1677106;85;21008;-40
2023/01/06 05:53:03;;;;;;;3.77;2.80;;;;;;;2.16;81.61;99571.23;1677157;84;21004;-42
2023/01/06 05:55:29;;;;;;;2.83;2.62;;;;;;;2.14;81.17;99583.38;1677221;84;20996;-43
2023/01/06 05:57:55;;;;;;;5.70;3.00;;;;;;;2.07;81.52;99573.97;1677185;85;21000;-40
2023/01/06 06:00:21;;;;;;;3.05;2.70;;;;;;;2.08;81.84;99579.59;1677044;84;21485;-42
2023/01/06 06:02:46;;;;;;;3.75;2.83;;;;;;;2.16;82.26;99585.95;1677140;85;21030;-43
2023/01/06 06:05:12;;;;;;;3.65;3.10;;;;;;;2.14;81.93;99580.78;1677077;84;21015;-43
2023/01/06 06:07:38;;;;;;;3.17;2.87;;;;;;;2.18;82.52;99575.95;1677120;84;21087;-42
2023/01/06 06:10:05;;;;;;;5.90;3.17;;;;;;;2.26;82.78;99566.31;1677124;85;21552;-42
2023/01/06 06:12:32;;;;;;;7.03;3.02;;;;;;;2.24;82.33;99566.78;1677169;85;21012;-41
2023/01/06 06:14:57;;;;;;;4.58;3.55;;;;;;;2.29;82.65;99572.75;1677206;85;21048;-41
2023/01/06 06:17:24;;;;;;;5.58;4.05;;;;;;;2.32;82.62;99567.94;1677294;84;21043;-42
2023/01/06 06:19:50;;;;;;;6.65;3.90;;;;;;;2.33;82.66;99570.09;1677087;85;21012;-42
2023/01/06 06:22:16;;;;;;;5.17;4.10;;;;;;;2.35;82.71;99575.68;1677094;84;21012;-40
2023/01/06 06:24:42;;;;;;;4.55;3.65;;;;;;;2.42;82.95;99580.30;1677098;85;21528;-41
2023/01/06 06:27:08;;;;;;;5.40;3.70;;;;;;;2.43;82.24;99582.87;1677194;85;21011;-41
2023/01/06 06:29:33;;;;;;;4.55;3.62;;;;;;;2.40;81.56;99585.97;1677029;85;21516;-42
2023/01/06 06:31:59;;;;;;;4.50;3.52;;;;;;;2.40;81.50;99588.14;1677163;84;20995;-39
2023/01/06 06:34:25;;;;;;;4.92;3.70;;;;;;;2.49;82.11;99593.59;1683161;84;20980;-42
2023/01/06 06:36:51;;;;;;;7.33;3.87;;;;;;;2.52;81.86;99594.84;1703829;83;21000;-43
2023/01/06 06:39:17;;;;;;;5.37;4.00;;;;;;;2.57;81.52;99590.88;1703851;84;21039;-42
2023/01/06 06:41:43;;;;;;;6.35;3.98;;;;;;;2.40;80.84;99583.38;1703829;83;20980;-42
2023/01/06 06:44:09;;;;;;;4.28;3.65;;;;;;;2.47;81.56;99594.06;1687511;83;21004;-39
2023/01/06 06:46:35;;;;;;;4.78;3.42;;;;;;;2.55;81.58;99592.62;1684644;85;21031;-39
2023/01/06 06:49:00;;;;;;;5.40;4.12;;;;;;;2.54;81.40;99593.08;1684768;84;20996;-39
2023/01/06 06:51:28;;;;;;;7.30;4.20;;;;;;;2.55;81.40;99597.40;1684769;84;21058;-42
2023/01/06 06:53:54;;;;;;;6.45;3.87;;;;;;;2.52;80.92;99610.42;1685414;84;21035;-39
2023/01/06 06:56:20;;;;;;;7.90;3.87;;;;;;;2.56;80.98;99610.78;1684706;85;21480;-39
2023/01/06 06:58:47;;;;;;;6.78;3.87;;;;;;;2.61;81.22;99610.71;1684726;84;21512;-42
2023/01/06 07:01:16;;;;;;;5.50;3.65;;;;;;;2.59;80.38;99618.97;1685141;84;21000;-42
2023/01/06 07:03:43;;;;;;;7.45;3.70;;;;;;;2.63;80.49;99627.11;1684919;83;20980;-41
2023/01/06 07:06:14;;;;;;;5.50;3.42;;;;;;;2.65;80.68;99625.34;1684915;84;21472;-39
2023/01/06 07:08:44;;;;;;;4.20;3.45;;;;;;;2.60;79.93;99620.25;1685009;84;21036;-40
2023/01/06 07:11:10;;;;;;;9.68;4.10;;;;;;;2.64;80.40;99615.41;1684911;84;20986;-40
2023/01/06 07:13:36;;;;;;;4.65;3.75;;;;;;;2.66;79.33;99622.73;1685081;84;21524;-39
2023/01/06 07:16:03;;;;;;;5.20;3.87;;;;;;;2.71;79.44;99634.77;1685030;84;21079;-39
2023/01/06 07:18:29;;;;;;;4.85;3.42;;;;;;;2.72;79.55;99650.77;1685945;83;20987;-43
2023/01/06 07:20:55;;;;;;;6.47;5.67;;;;;;;2.75;78.33;99653.30;1684710;84;20995;-41
2023/01/06 07:23:22;;;;;;;7.62;5.05;;;;;;;2.78;77.85;99645.45;1684865;84;20991;-41
2023/01/06 07:25:54;;;;;;;4.45;3.72;;;;;;;2.80;77.56;99647.58;1685311;83;21791;-40
2023/01/06 07:28:20;;;;;;;7.50;3.72;;;;;;;2.86;78.18;99657.43;1657111;85;21508;-41
2023/01/06 07:30:47;;;;;;;3.95;3.27;;;;;;;2.84;77.43;99658.35;1684641;85;21536;-42
2023/01/06 07:33:12;;;;;;;5.20;3.52;;;;;;;2.80;77.29;99660.56;1684356;85;21003;-41
2023/01/06 07:35:38;;;;;;;4.87;3.08;;;;;;;2.71;77.57;99654.23;1684676;84;21000;-42
2023/01/06 07:38:06;;;;;;;4.12;3.72;;;;;;;2.77;77.19;99654.16;1684688;84;20995;-42
2023/01/06 07:40:33;;;;;;;4.12;3.52;;;;;;;2.74;77.42;99655.50;1684909;84;20996;-43
2023/01/06 07:43:05;;;;;;;5.17;3.72;;;;;;;2.75;77.81;99649.40;1691326;83;21619;-44
2023/01/06 07:45:31;;;;;;;4.83;3.55;;;;;;;2.80;77.41;99653.66;1703941;84;20999;-39
2023/01/06 07:47:57;;;;;;;8.15;5.28;;;;;;;2.82;77.24;99660.09;1703838;83;21504;-40
2023/01/06 07:50:24;;;;;;;7.58;5.42;;;;;;;2.85;76.40;99656.16;1704165;83;21101;-39
2023/01/06 07:52:49;;;;;;;8.43;6.85;;;;;;;2.92;76.40;99657.76;1703843;84;20956;-42
2023/01/06 07:55:15;;;;;;;6.53;4.45;;;;;;;2.93;76.85;99655.59;1703814;83;21000;-42
2023/01/06 07:57:41;;;;;;;4.67;3.90;;;;;;;2.96;77.35;99660.70;1703820;83;20976;-43
2023/01/06 08:00:09;;;;;;;5.35;4.25;;;;;;;2.89;77.31;99643.52;1703872;83;20999;-41
2023/01/06 08:02:34;;;;;;;5.50;4.20;;;;;;;2.83;76.24;99651.43;1703795;84;21043;-43
2023/01/06 08:05:00;;;;;;;6.00;3.98;;;;;;;2.79;76.31;99645.89;1703779;83;21007;-41
2023/01/06 08:07:26;;;;;;;5.35;3.83;;;;;;;2.81;76.28;99648.01;1703788;83;21063;-40
2023/01/06 08:09:52;;;;;;;4.42;3.83;;;;;;;2.79;77.12;99635.50;1703986;84;21142;-43
2023/01/06 08:12:18;;;;;;;5.90;4.03;;;;;;;2.83;77.01;99645.78;1704214;84;21012;-41
2023/01/06 08:14:43;;;;;;;5.03;4.08;;;;;;;2.84;77.01;99648.81;1703792;83;21000;-43
2023/01/06 08:17:09;;;;;;;5.60;4.30;;;;;;;2.87;77.29;99651.36;1703930;83;20992;-41
2023/01/06 08:19:35;;;;;;;7.58;3.47;;;;;;;2.83;76.63;99644.94;1704030;84;21085;-43
2023/01/06 08:22:01;;;;;;;5.08;4.30;;;;;;;2.90;77.29;99639.20;1704332;83;21000;-40
2023/01/06 08:24:29;;;;;;;16.82;10.80;;;;;;;2.82;75.60;99640.20;1704359;83;20988;-43
2023/01/06 08:26:55;;;;;;;12.88;9.60;;;;;;;2.85;75.92;99645.77;1704278;83;20964;-43
2023/01/06 08:29:20;;;;;;;12.53;9.53;;;;;;;2.90;76.19;99646.54;1703090;84;21003;-40
2023/01/06 08:31:46;;;;;;;5.67;4.70;;;;;;;2.98;76.01;99648.99;1703890;84;21007;-43
2023/01/06 08:34:13;;;;;;;9.20;5.55;;;;;;;3.01;75.27;99649.79;1703983;83;20969;-42
2023/01/06 08:36:40;;;;;;;7.58;6.75;;;;;;;3.01;74.97;99648.49;1704255;83;20995;-39
2023/01/06 08:39:07;;;;;;;14.43;11.48;;;;;;;3.03;75.37;99648.02;1704061;83;21048;-40
2023/01/06 08:41:32;;;;;;;6.03;4.40;;;;;;;3.04;75.40;99648.44;1703939;83;21042;-42
2023/01/06 08:43:58;;;;;;;5.45;4.62;;;;;;;3.02;76.27;99642.42;1710978;83;21078;-39
2023/01/06 08:46:25;;;;;;;5.87;4.20;;;;;;;3.05;76.67;99647.54;1716927;83;20979;-40
2023/01/06 08:48:51;;;;;;;5.50;4.37;;;;;;;3.08;76.42;99650.55;1717167;83;21039;-42
2023/01/06 08:51:22;;;;;;;8.53;5.17;;;;;;;3.06;76.28;99671.80;1716835;83;20964;-39
2023/01/06 08:53:47;;;;;;;5.85;4.25;;;;;;;3.09;76.31;99666.53;1716736;83;20999;-38
2023/01/06 08:56:17;;;;;;;5.25;4.28;;;;;;;3.14;75.88;99669.05;1716914;83;21022;-38
2023/01/06 08:58:44;;;;;;;19.20;7.47;;;;;;;3.17;76.02;99667.26;1716844;83;20999;-38
2023/01/06 09:01:19;;;;;;;16.17;6.78;;;;;;;3.18;76.00;99656.41;1716872;83;21481;-42
2023/01/06 09:03:45;;;;;;;9.40;5.90;;;;;;;3.23;76.35;99656.73;1716904;83;21572;-39
2023/01/06 09:06:11;;;;;;;4.45;3.92;;;;;;;3.23;75.46;99651.98;1716913;83;21007;-40
2023/01/06 09:08:37;;;;;;;5.90;4.40;;;;;;;3.25;75.14;99656.70;1716851;83;21003;-40
2023/01/06 09:11:06;;;;;;;5.55;4.40;;;;;;;3.27;75.19;99661.42;1716890;83;20999;-42
2023/01/06 09:13:33;;;;;;;4.90;4.00;;;;;;;3.31;75.23;99660.50;1716788;83;21483;-42
2023/01/06 09:15:59;;;;;;;5.65;4.65;;;;;;;3.34;75.01;99657.82;1716951;83;21485;-40
2023/01/06 09:18:25;;;;;;;5.22;4.28;;;;;;;3.38;75.66;99659.47;1716994;83;20995;-41
2023/01/06 09:20:51;;;;;;;7.62;5.37;;;;;;;3.40;75.23;99660.73;1717026;83;21524;-41
2023/01/06 09:23:16;;;;;;;7.08;4.45;;;;;;;3.43;74.82;99664.13;1716876;83;21524;-38
2023/01/06 09:25:42;;;;;;;13.00;7.00;;;;;;;3.43;74.78;99655.03;1716852;83;21007;-42
2023/01/06 09:28:09;;;;;;;6.87;5.25;;;;;;;3.45;74.93;99655.85;1716825;83;21108;-39
2023/01/06 09:30:35;;;;;;;8.78;5.95;;;;;;;3.43;75.12;99652.44;1717200;83;20991;-42
2023/01/06 09:33:01;;;;;;;9.85;6.90;;;;;;;3.46;75.51;99652.38;1716775;83;21011;-42
2023/01/06 09:35:27;;;;;;;9.15;5.17;;;;;;;3.49;75.01;99651.45;1716867;83;21060;-41
2023/01/06 09:37:53;;;;;;;13.90;8.20;;;;;;;3.53;75.24;99650.52;1716826;83;21003;-42
2023/01/06 09:40:23;;;;;;;9.90;6.65;;;;;;;3.58;75.24;99641.31;1716924;83;21003;-41
2023/01/06 09:43:00;;;;;;;16.17;7.85;;;;;;;3.55;74.76;99638.80;1716670;83;21092;-39
2023/01/06 09:45:46;;;;;;;16.05;8.50;;;;;;;3.56;74.62;99646.98;1716653;83;21489;-41
2023/01/06 09:48:23;;;;;;;15.18;8.08;;;;;;;3.56;74.53;99643.09;1715443;83;21007;-39
2023/01/06 09:50:56;;;;;;;14.10;8.50;;;;;;;3.62;74.43;99637.74;1717179;83;21007;-45
2023/01/06 09:53:36;;;;;;;9.15;5.78;;;;;;;3.64;74.21;99637.30;1716792;82;21047;-44
2023/01/06 09:56:13;;;;;;;16.80;8.28;;;;;;;3.69;73.42;99648.42;1716826;83;21528;-42
2023/01/06 09:58:47;;;;;;;24.23;9.60;;;;;;;3.67;73.40;99646.31;1716954;83;21468;-40
2023/01/06 10:01:16;;;;;;;15.43;9.30;;;;;;;3.71;73.77;99652.30;1716808;83;20975;-42
2023/01/06 10:03:46;;;;;;;17.87;10.58;;;;;;;3.66;73.14;99653.72;1716831;83;20971;-43
2023/01/06 10:06:39;;;;;;;15.75;11.03;;;;;;;3.68;73.51;99642.83;1716877;83;21067;-39
2023/01/06 10:09:28;;;;;;;16.00;9.30;;;;;;;3.69;74.33;99644.98;1716995;83;21038;-41
2023/01/06 10:12:32;;;;;;;14.73;8.00;;;;;;;3.73;74.25;99640.99;1716641;82;20975;-43
2023/01/06 10:15:18;;;;;;;13.18;9.63;;;;;;;3.76;73.87;99638.76;1715762;82;21500;-39
2023/01/06 10:18:10;;;;;;;19.62;11.45;;;;;;;3.76;73.15;99627.90;1715912;83;21440;-44
2023/01/06 10:20:53;;;;;;;13.65;9.00;;;;;;;3.80;73.46;99626.97;1717091;83;21550;-42
2023/01/06 10:23:59;;;;;;;9.83;6.12;;;;;;;3.83;73.09;99626.87;1716942;83;21047;-42
2023/01/06 10:26:38;;;;;;;13.83;7.28;;;;;;;3.91;73.72;99616.73;1717106;83;21003;-44
2023/01/06 10:29:12;;;;;;;18.55;10.43;;;;;;;3.92;72.19;99622.38;1714644;82;21441;-43
2023/01/06 10:31:40;;;;;;;24.52;14.45;;;;;;;4.01;72.61;99615.20;1714734;82;21003;-44
2023/01/06 10:34:22;;;;;;;22.48;13.70;;;;;;;4.07;73.13;99595.97;1714860;82;21002;-43
2023/01/06 10:36:57;;;;;;;18.48;10.00;;;;;;;4.05;71.53;99587.35;1714039;83;21835;-44
2023/01/06 10:39:26;;;;;;;16.00;9.20;;;;;;;4.11;71.87;99575.94;1706566;82;21459;-40
2023/01/06 10:45:12;;;;;;;18.12;10.95;;;;;;;4.19;71.90;99564.91;1714745;83;21070;-40
2023/01/06 10:47:41;;;;;;;17.23;11.30;;;;;;;4.26;71.97;99554.75;1714721;84;21000;-38
2023/01/06 10:50:14;;;;;;;14.73;9.70;;;;;;;4.30;72.80;99555.53;1716799;82;21485;-40
2023/01/06 10:52:40;;;;;;;22.73;10.75;;;;;;;4.33;72.38;99558.91;1715727;83;20995;-40
2023/01/06 10:55:11;;;;;;;15.80;10.53;;;;;;;4.35;71.51;99553.21;1716997;83;21493;-41
2023/01/06 10:57:39;;;;;;;16.10;10.03;;;;;;;4.33;71.20;99547.62;1716585;81;21007;-41
2023/01/06 11:00:17;;;;;;;15.65;10.00;;;;;;;4.27;71.46;99551.23;1716746;82;21003;-41
2023/01/06 11:02:47;;;;;;;11.50;8.18;;;;;;;4.27;71.32;99541.28;1716671;83;20999;-43
2023/01/06 11:05:17;;;;;;;13.65;8.98;;;;;;;4.25;71.34;99540.47;1716749;83;21472;-43
2023/01/06 11:07:56;;;;;;;9.50;7.70;;;;;;;4.18;70.92;99543.66;1715032;83;20996;-43
2023/01/06 11:10:29;;;;;;;8.95;7.28;;;;;;;4.07;71.00;99541.32;1716758;83;20967;-43
2023/01/06 11:12:59;;;;;;;12.07;8.28;;;;;;;4.09;71.63;99534.78;1716786;83;21054;-40
2023/01/06 11:15:35;;;;;;;18.87;10.35;;;;;;;4.12;72.06;99536.02;1716609;83;20975;-43
2023/01/06 11:18:04;;;;;;;10.72;6.97;;;;;;;4.13;72.12;99532.50;1714585;83;21039;-40
2023/01/06 11:20:34;;;;;;;9.83;6.90;;;;;;;4.12;72.05;99536.86;1716774;83;21007;-41
2023/01/06 11:23:21;;;;;;;9.68;6.67;;;;;;;4.10;71.79;99551.66;1716715;83;20991;-43
2023/01/06 11:26:16;;;;;;;10.35;6.58;;;;;;;4.07;71.65;99554.34;1716766;83;20983;-40
2023/01/06 11:28:49;;;;;;;9.83;7.67;;;;;;;4.08;71.78;99537.00;1716315;82;20999;-42
2023/01/06 11:31:19;;;;;;;21.33;10.03;;;;;;;4.01;71.86;99531.08;1682220;83;21462;-40
2023/01/06 11:34:02;;;;;;;12.45;8.60;;;;;;;4.09;72.30;99521.77;1716812;82;21035;-40
2023/01/06 11:36:31;;;;;;;12.10;7.85;;;;;;;4.01;71.65;99516.77;1716723;83;21492;-39
2023/01/06 11:39:25;;;;;;;18.70;6.90;;;;;;;4.02;72.10;99511.95;1716745;83;20999;-42
2023/01/06 11:41:53;;;;;;;11.85;7.85;;;;;;;4.02;71.99;99513.25;1716072;83;21473;-43
2023/01/06 11:44:38;;;;;;;14.38;8.98;;;;;;;3.94;72.07;99511.30;1713309;83;21031;-43
2023/01/06 11:47:21;;;;;;;25.37;11.83;;;;;;;3.97;72.72;99509.48;1716742;83;20967;-45
2023/01/06 11:49:57;;;;;;;27.27;15.98;;;;;;;3.96;72.45;99512.11;1712386;84;20977;-41
2023/01/06 11:52:29;;;;;;;46.58;20.80;;;;;;;4.01;72.65;99513.70;1713370;83;21045;-41
2023/01/06 11:55:13;;;;;;;34.13;15.53;;;;;;;4.04;72.51;99515.40;1713108;84;20969;-42
2023/01/06 11:57:47;;;;;;;17.15;9.60;;;;;;;3.96;72.16;99499.11;1713527;83;21453;-41
2023/01/06 12:00:18;;;;;;;17.00;8.53;;;;;;;4.06;72.90;99503.20;1713473;83;21648;-40
2023/01/06 12:03:09;;;;;;;14.80;8.50;;;;;;;4.08;72.83;99497.50;1713654;83;21060;-40
2023/01/06 12:05:46;;;;;;;10.08;6.30;;;;;;;4.07;72.39;99491.88;1711300;83;21521;-42